Time;durP1;ratioP1;P1;durP2;ratioP2;P2;SDS_P1;SDS_P2;PMS_P1;PMS_P2;Temp;Humidity;BMP_temperature;BMP_pressure;BME280_temperature;BME280_humidity;BME280_pressure;Samples;Min_cycle;Max_cycle;Signal;HPM_P1;HPM_P2
2023/05/13 00:02:36;;;;;;;6.97;3.75;;;17.40;96.10;;;;;;10426335;28;20135;-67
2023/05/13 00:07:37;;;;;;;5.57;3.92;;;17.40;96.10;;;;;;10420229;28;20405;-69
2023/05/13 00:12:38;;;;;;;4.88;3.72;;;17.40;96.10;;;;;;10424545;28;20025;-68
2023/05/13 00:17:38;;;;;;;7.57;3.72;;;17.30;96.10;;;;;;10430945;28;20037;-68
2023/05/13 00:22:39;;;;;;;5.97;4.03;;;17.30;96.10;;;;;;10436468;28;20033;-67
2023/05/13 00:27:39;;;;;;;7.60;3.92;;;17.30;96.10;;;;;;10414707;28;20033;-68
2023/05/13 00:32:40;;;;;;;5.07;3.70;;;17.20;96.00;;;;;;10425955;28;20025;-67
2023/05/13 00:37:40;;;;;;;4.95;4.28;;;17.20;96.00;;;;;;10427768;28;20021;-68
2023/05/13 00:42:44;;;;;;;4.05;3.53;;;17.20;96.00;;;;;;10425528;28;20027;-68
2023/05/13 00:47:46;;;;;;;4.82;3.85;;;17.10;96.00;;;;;;10422580;28;20029;-68
2023/05/13 00:52:48;;;;;;;6.57;3.95;;;17.10;96.00;;;;;;10426707;28;20100;-67
2023/05/13 00:57:49;;;;;;;7.80;4.47;;;17.10;96.00;;;;;;10424198;28;20045;-67
2023/05/13 01:02:54;;;;;;;6.90;4.22;;;17.00;96.00;;;;;;10430115;28;20104;-67
2023/05/13 01:08:19;;;;;;;6.43;4.20;;;17.10;96.10;;;;;;10420329;28;20014;-67
2023/05/13 01:13:23;;;;;;;7.63;4.07;;;17.00;96.00;;;;;;10421718;28;20021;-68
2023/05/13 01:18:30;;;;;;;4.60;3.78;;;16.90;96.00;;;;;;10421255;28;20029;-67
2023/05/13 01:23:31;;;;;;;5.50;4.00;;;16.90;96.00;;;;;;10424158;28;20017;-67
2023/05/13 01:28:31;;;;;;;4.10;3.70;;;16.90;96.00;;;;;;10424893;28;20025;-68
2023/05/13 01:33:32;;;;;;;4.85;4.15;;;16.90;96.00;;;;;;10427910;28;20022;-67
2023/05/13 01:38:35;;;;;;;5.97;4.18;;;16.80;96.10;;;;;;10419531;28;20402;-67
2023/05/13 01:43:36;;;;;;;6.03;4.50;;;16.80;96.00;;;;;;10422239;28;20382;-67
2023/05/13 01:48:36;;;;;;;6.88;4.07;;;16.80;96.10;;;;;;10415986;28;20025;-68
2023/05/13 01:53:37;;;;;;;6.07;4.40;;;16.80;96.10;;;;;;10420743;28;20028;-67
2023/05/13 01:58:37;;;;;;;5.22;3.95;;;16.70;96.00;;;;;;10424362;28;20278;-68
2023/05/13 02:03:38;;;;;;;7.10;4.30;;;16.70;96.10;;;;;;10427585;28;20029;-67
2023/05/13 02:08:39;;;;;;;6.43;4.35;;;16.70;96.10;;;;;;10412830;28;20401;-68
2023/05/13 02:13:39;;;;;;;5.03;3.88;;;16.70;96.10;;;;;;10430562;28;20086;-67
2023/05/13 02:18:40;;;;;;;5.00;4.18;;;16.60;96.10;;;;;;10413637;28;20029;-67
2023/05/13 02:23:40;;;;;;;6.75;5.15;;;16.60;96.10;;;;;;10426609;28;20119;-67
2023/05/13 02:28:41;;;;;;;4.78;4.03;;;16.50;96.10;;;;;;10419184;28;20534;-68
2023/05/13 02:33:41;;;;;;;4.38;3.88;;;16.50;96.10;;;;;;10429343;28;20178;-67
2023/05/13 02:38:42;;;;;;;5.28;4.32;;;16.40;96.10;;;;;;10417446;28;20543;-67
2023/05/13 02:43:42;;;;;;;6.82;4.15;;;16.50;96.10;;;;;;10424816;28;20086;-68
2023/05/13 02:48:43;;;;;;;4.68;4.00;;;16.40;96.10;;;;;;10415092;28;20202;-68
2023/05/13 02:53:44;;;;;;;4.97;4.20;;;16.30;96.10;;;;;;10425061;28;20090;-68
2023/05/13 02:58:44;;;;;;;8.75;4.43;;;16.40;96.20;;;;;;10423957;28;20401;-68
2023/05/13 03:03:45;;;;;;;5.78;4.10;;;16.30;96.20;;;;;;10430020;28;20159;-69
2023/05/13 03:08:45;;;;;;;5.10;4.40;;;16.30;96.20;;;;;;10429563;28;20027;-68
2023/05/13 03:13:46;;;;;;;5.40;4.25;;;16.30;96.20;;;;;;10426153;28;20071;-69
2023/05/13 03:18:46;;;;;;;6.82;4.45;;;16.30;96.20;;;;;;10426662;28;20024;-69
2023/05/13 03:23:47;;;;;;;5.65;4.28;;;16.20;96.20;;;;;;10426466;28;20031;-69
2023/05/13 03:28:48;;;;;;;4.90;4.03;;;16.20;96.20;;;;;;10411634;28;20025;-69
2023/05/13 03:33:48;;;;;;;4.80;4.03;;;16.20;96.20;;;;;;10432719;28;20040;-69
2023/05/13 03:38:49;;;;;;;5.80;4.63;;;16.20;96.20;;;;;;10426137;28;20199;-69
2023/05/13 03:43:50;;;;;;;5.65;4.43;;;16.20;96.20;;;;;;10416953;28;20052;-68
2023/05/13 03:48:50;;;;;;;4.57;3.83;;;16.10;96.20;;;;;;10417938;28;20485;-69
2023/05/13 03:53:51;;;;;;;6.60;4.40;;;16.10;96.20;;;;;;10414792;28;20022;-69
2023/05/13 03:58:51;;;;;;;5.50;4.35;;;16.10;96.30;;;;;;10416688;28;20024;-68
2023/05/13 04:03:52;;;;;;;5.40;4.60;;;16.00;96.20;;;;;;10416018;28;20767;-68
2023/05/13 04:08:53;;;;;;;5.75;3.95;;;16.00;96.30;;;;;;10420903;28;20032;-69
2023/05/13 04:13:54;;;;;;;5.07;4.20;;;16.00;96.30;;;;;;10421505;28;20021;-68
2023/05/13 04:18:54;;;;;;;5.07;4.30;;;16.10;96.30;;;;;;10416434;28;20021;-68
2023/05/13 04:23:55;;;;;;;5.18;4.40;;;16.00;96.30;;;;;;10409718;28;20029;-69
2023/05/13 04:28:58;;;;;;;4.93;4.25;;;15.90;96.30;;;;;;10418874;28;20021;-68
2023/05/13 04:33:59;;;;;;;5.03;4.40;;;15.90;96.30;;;;;;10427077;28;20025;-69
2023/05/13 04:38:59;;;;;;;4.57;4.15;;;15.90;96.30;;;;;;10417624;28;20033;-68
2023/05/13 04:44:00;;;;;;;6.15;4.45;;;15.90;96.30;;;;;;10415168;28;20018;-68
2023/05/13 04:49:08;;;;;;;5.40;4.15;;;15.90;96.30;;;;;;10414962;28;20033;-68
2023/05/13 04:54:09;;;;;;;5.80;4.97;;;15.90;96.30;;;;;;10423772;28;20527;-69
2023/05/13 04:59:09;;;;;;;6.60;4.63;;;15.90;96.30;;;;;;10421853;28;20474;-68
2023/05/13 05:04:11;;;;;;;6.45;4.68;;;15.80;96.20;;;;;;10422698;28;20526;-68
2023/05/13 05:09:11;;;;;;;5.63;4.60;;;15.80;96.20;;;;;;10424651;28;20048;-68
2023/05/13 05:14:12;;;;;;;5.38;4.30;;;15.90;96.20;;;;;;10426524;28;20053;-69
2023/05/13 05:19:12;;;;;;;4.72;3.92;;;15.90;96.20;;;;;;10420413;28;20095;-68
2023/05/13 05:24:13;;;;;;;5.10;4.13;;;15.80;96.20;;;;;;10422254;28;20028;-68
2023/05/13 05:29:14;;;;;;;6.13;4.55;;;15.70;96.20;;;;;;10419892;28;20033;-68
2023/05/13 05:34:14;;;;;;;6.00;4.28;;;15.80;96.20;;;;;;10422301;28;20017;-68
2023/05/13 05:39:15;;;;;;;5.40;4.32;;;15.80;96.20;;;;;;10422298;28;20040;-68
2023/05/13 05:44:15;;;;;;;5.22;4.50;;;15.80;96.20;;;;;;10418520;28;20032;-68
2023/05/13 05:49:16;;;;;;;5.97;4.32;;;15.80;96.20;;;;;;10418296;28;20112;-69
2023/05/13 05:54:16;;;;;;;6.15;4.45;;;15.80;96.20;;;;;;10421579;28;20028;-69
2023/05/13 05:59:17;;;;;;;5.03;4.30;;;15.80;96.20;;;;;;10421413;28;20318;-69
2023/05/13 06:04:21;;;;;;;5.78;4.32;;;15.80;96.20;;;;;;10399787;28;20028;-69
2023/05/13 06:09:22;;;;;;;5.35;4.22;;;15.80;96.20;;;;;;10419551;28;20029;-68
2023/05/13 06:14:22;;;;;;;5.45;3.90;;;15.80;96.20;;;;;;10422124;28;20024;-68
2023/05/13 06:19:23;;;;;;;7.70;4.25;;;15.80;96.30;;;;;;10413987;28;20115;-69
2023/05/13 06:24:24;;;;;;;8.98;4.25;;;15.80;96.30;;;;;;10418971;28;20071;-68
2023/05/13 06:29:24;;;;;;;7.38;4.20;;;15.80;96.30;;;;;;10412267;28;20507;-69
2023/05/13 06:34:25;;;;;;;5.88;4.03;;;15.80;96.30;;;;;;10420795;28;20017;-68
2023/05/13 06:39:25;;;;;;;5.38;3.92;;;15.80;96.30;;;;;;10415582;28;20029;-69
2023/05/13 06:44:26;;;;;;;7.25;3.97;;;15.80;96.30;;;;;;10416554;28;20029;-68
2023/05/13 06:49:27;;;;;;;6.07;3.90;;;15.80;96.30;;;;;;10411092;28;20205;-69
2023/05/13 06:54:27;;;;;;;4.50;3.65;;;15.80;96.30;;;;;;10417961;28;20492;-71
2023/05/13 06:59:29;;;;;;;4.93;4.07;;;15.80;96.30;;;;;;10415067;28;20063;-68
2023/05/13 07:04:29;;;;;;;5.05;3.90;;;15.90;96.30;;;;;;10422348;28;20083;-68
2023/05/13 07:09:30;;;;;;;5.28;3.70;;;15.90;96.30;;;;;;10426260;28;20086;-68
2023/05/13 07:14:30;;;;;;;7.82;4.50;;;15.90;96.30;;;;;;10423829;28;20113;-68
2023/05/13 07:19:31;;;;;;;4.70;3.72;;;16.00;96.30;;;;;;10429589;28;20029;-68
2023/05/13 07:24:32;;;;;;;5.03;3.95;;;16.00;96.30;;;;;;10424777;28;20512;-68
2023/05/13 07:29:32;;;;;;;5.18;3.95;;;16.00;96.20;;;;;;10421260;28;20552;-68
2023/05/13 07:34:33;;;;;;;4.57;3.63;;;16.00;96.20;;;;;;10420851;28;20037;-69
2023/05/13 07:39:34;;;;;;;5.45;4.60;;;16.10;96.30;;;;;;10413404;28;20041;-68
2023/05/13 07:44:34;;;;;;;5.45;4.30;;;16.10;96.30;;;;;;10423378;28;20466;-68
2023/05/13 07:49:35;;;;;;;5.30;4.30;;;16.10;96.30;;;;;;10423754;28;20040;-69
2023/05/13 07:54:35;;;;;;;5.05;4.38;;;16.10;96.30;;;;;;10427525;28;20025;-69
2023/05/13 07:59:36;;;;;;;6.32;3.95;;;16.10;96.40;;;;;;10421269;28;20160;-68
2023/05/13 08:04:37;;;;;;;6.57;4.07;;;16.20;96.40;;;;;;10425504;28;20033;-68
2023/05/13 08:09:37;;;;;;;4.45;4.00;;;16.20;96.40;;;;;;10421168;28;20053;-68
2023/05/13 08:14:38;;;;;;;13.65;7.20;;;16.20;96.50;;;;;;10419629;28;20319;-72
2023/05/13 08:19:39;;;;;;;13.68;7.57;;;16.20;96.30;;;;;;10411486;28;20072;-71
2023/05/13 08:24:41;;;;;;;10.60;6.53;;;16.40;96.00;;;;;;10422542;28;20524;-72
2023/05/13 08:29:42;;;;;;;9.73;6.85;;;16.40;95.80;;;;;;10419840;28;20400;-71
2023/05/13 08:34:43;;;;;;;10.02;6.22;;;16.50;95.90;;;;;;10411646;28;20036;-71
2023/05/13 08:39:43;;;;;;;9.65;6.53;;;16.70;95.40;;;;;;10422291;28;20033;-71
2023/05/13 08:44:45;;;;;;;9.85;6.03;;;16.80;95.10;;;;;;10427148;28;20040;-71
2023/05/13 08:49:46;;;;;;;9.40;5.78;;;17.00;94.60;;;;;;10423102;28;20032;-70
2023/05/13 08:54:48;;;;;;;8.63;5.55;;;17.10;93.90;;;;;;10422096;28;20108;-70
2023/05/13 08:59:50;;;;;;;9.73;6.25;;;17.30;94.00;;;;;;10421484;28;20028;-70
2023/05/13 09:04:53;;;;;;;12.52;6.35;;;17.40;94.10;;;;;;10415047;28;20033;-70
2023/05/13 09:09:54;;;;;;;11.70;6.85;;;17.40;94.20;;;;;;10409555;28;20013;-70
2023/05/13 09:14:55;;;;;;;13.70;6.47;;;17.60;94.30;;;;;;10419307;28;20472;-70
2023/05/13 09:19:55;;;;;;;9.52;6.13;;;17.80;94.40;;;;;;10417752;28;20075;-70
2023/05/13 09:24:57;;;;;;;7.35;5.43;;;18.00;93.80;;;;;;10412124;28;20032;-70
2023/05/13 09:29:59;;;;;;;9.38;6.93;;;18.00;93.40;;;;;;10421879;28;20580;-69
2023/05/13 09:35:10;;;;;;;11.68;6.75;;;18.20;93.30;;;;;;10414069;28;20017;-70
2023/05/13 09:40:16;;;;;;;7.85;5.80;;;18.20;93.20;;;;;;10421806;28;20045;-68
2023/05/13 09:45:16;;;;;;;7.60;4.55;;;18.30;92.70;;;;;;10415763;28;20029;-67
2023/05/13 09:50:17;;;;;;;6.60;5.32;;;18.40;92.40;;;;;;10419670;28;20033;-67
2023/05/13 09:55:18;;;;;;;6.47;4.65;;;18.50;91.80;;;;;;10421889;28;20528;-68
2023/05/13 10:00:18;;;;;;;7.80;4.75;;;18.70;91.70;;;;;;10420429;28;20036;-68
2023/05/13 10:05:20;;;;;;;6.05;4.15;;;18.80;91.00;;;;;;10423878;28;20493;-68
2023/05/13 10:10:21;;;;;;;5.30;3.88;;;18.90;89.50;;;;;;10422503;28;20511;-68
2023/05/13 10:15:22;;;;;;;9.63;4.25;;;19.00;88.30;;;;;;10414944;28;20010;-68
2023/05/13 10:20:25;;;;;;;8.23;3.80;;;19.10;87.60;;;;;;10422236;28;20404;-67
2023/05/13 10:25:26;;;;;;;5.68;4.13;;;19.20;86.20;;;;;;10415018;28;20325;-65
2023/05/13 10:30:30;;;;;;;6.93;3.95;;;19.40;86.90;;;;;;10414670;28;20061;-65
2023/05/13 10:35:35;;;;;;;4.95;3.80;;;19.10;88.10;;;;;;10408708;28;20478;-65
2023/05/13 10:40:50;;;;;;;4.10;3.60;;;19.00;89.40;;;;;;10419405;28;20021;-65
2023/05/13 10:46:05;;;;;;;4.90;3.42;;;18.80;90.20;;;;;;10419592;28;20024;-65
2023/05/13 10:51:09;;;;;;;4.28;3.47;;;18.80;91.00;;;;;;10426084;28;20112;-66
2023/05/13 10:56:09;;;;;;;5.45;3.28;;;18.70;91.40;;;;;;10420614;28;20022;-65
2023/05/13 11:01:29;;;;;;;4.28;3.45;;;18.60;91.40;;;;;;10425376;28;20060;-65
2023/05/13 11:06:36;;;;;;;4.47;3.33;;;18.60;91.30;;;;;;10426719;28;20029;-65
2023/05/13 11:11:38;;;;;;;3.70;3.00;;;18.70;91.80;;;;;;10429805;28;20112;-65
2023/05/13 11:16:47;;;;;;;4.97;3.05;;;18.70;92.00;;;;;;10426399;28;20021;-65
2023/05/13 11:21:51;;;;;;;5.53;3.20;;;18.70;92.10;;;;;;10437304;28;20041;-65
2023/05/13 11:26:57;;;;;;;3.75;2.92;;;18.70;92.10;;;;;;10419373;28;20041;-64
2023/05/13 11:32:00;;;;;;;3.92;3.33;;;18.80;92.20;;;;;;10421920;28;20025;-65
2023/05/13 11:37:03;;;;;;;5.28;3.30;;;18.80;92.20;;;;;;10423369;28;20392;-64
2023/05/13 11:42:09;;;;;;;6.60;3.10;;;19.00;92.40;;;;;;10427090;28;20033;-65
2023/05/13 11:47:10;;;;;;;4.70;3.08;;;18.90;92.40;;;;;;10417981;28;20049;-65
2023/05/13 11:52:16;;;;;;;3.20;2.90;;;18.90;92.40;;;;;;10420064;28;20036;-65
2023/05/13 11:57:16;;;;;;;4.00;3.20;;;18.90;92.40;;;;;;10428247;28;20021;-65
2023/05/13 12:02:20;;;;;;;5.10;3.28;;;19.10;92.50;;;;;;10416495;28;20035;-65
2023/05/13 12:07:23;;;;;;;5.35;3.88;;;19.10;92.50;;;;;;10420673;28;20117;-65
2023/05/13 12:12:25;;;;;;;5.32;2.90;;;19.10;92.50;;;;;;10429886;28;20017;-65
2023/05/13 12:17:26;;;;;;;4.25;2.83;;;19.10;92.50;;;;;;10419553;28;20021;-65
2023/05/13 12:22:27;;;;;;;3.55;3.20;;;19.10;92.60;;;;;;10418156;28;20079;-65
2023/05/13 12:27:28;;;;;;;4.10;2.80;;;19.20;92.60;;;;;;10413956;28;20519;-65
2023/05/13 12:32:28;;;;;;;4.18;3.10;;;19.30;92.60;;;;;;10416156;28;20040;-65
2023/05/13 12:37:30;;;;;;;4.93;3.03;;;19.20;92.60;;;;;;10427317;28;20023;-65
2023/05/13 12:42:31;;;;;;;4.35;3.10;;;19.40;92.50;;;;;;10429108;28;20026;-65
2023/05/13 12:47:49;;;;;;;3.78;2.90;;;19.60;92.70;;;;;;10427865;28;20028;-65
2023/05/13 12:52:51;;;;;;;4.72;3.28;;;19.50;92.70;;;;;;10426680;28;20040;-65
2023/05/13 12:58:02;;;;;;;3.60;2.78;;;19.50;92.90;;;;;;10424072;28;20277;-65
2023/05/13 13:03:03;;;;;;;2.90;2.60;;;19.60;92.70;;;;;;10429624;28;20021;-65
2023/05/13 13:08:04;;;;;;;4.63;3.28;;;19.70;92.70;;;;;;10430569;28;20028;-65
2023/05/13 13:13:04;;;;;;;3.10;2.80;;;19.80;92.80;;;;;;10418351;28;20026;-65
2023/05/13 13:18:05;;;;;;;3.67;3.08;;;19.80;92.80;;;;;;10432040;28;20013;-65
2023/05/13 13:23:06;;;;;;;3.42;2.80;;;20.00;92.70;;;;;;10424864;28;20037;-65
2023/05/13 13:28:06;;;;;;;3.67;3.10;;;20.10;92.70;;;;;;10424032;28;20082;-65
2023/05/13 13:33:07;;;;;;;3.40;3.10;;;20.20;92.70;;;;;;10425536;28;20105;-65
2023/05/13 13:38:07;;;;;;;3.80;3.05;;;20.30;92.80;;;;;;10421651;28;20026;-65
2023/05/13 13:43:08;;;;;;;3.85;3.13;;;20.30;92.80;;;;;;10423301;28;20449;-65
2023/05/13 13:48:09;;;;;;;4.72;2.90;;;20.40;92.90;;;;;;10423442;28;20025;-65
2023/05/13 13:53:09;;;;;;;3.30;2.97;;;20.40;92.80;;;;;;10427257;28;20070;-65
2023/05/13 13:58:10;;;;;;;3.83;3.15;;;20.60;92.70;;;;;;10428467;28;20563;-65
2023/05/13 14:03:11;;;;;;;3.65;3.10;;;20.70;92.80;;;;;;10420689;28;20082;-65
2023/05/13 14:08:11;;;;;;;3.55;2.58;;;20.70;92.70;;;;;;10412256;28;20021;-65
2023/05/13 14:13:12;;;;;;;3.33;2.72;;;20.80;92.70;;;;;;10408886;28;20032;-65
2023/05/13 14:18:12;;;;;;;4.43;2.97;;;20.90;92.60;;;;;;10414673;28;20025;-65
2023/05/13 14:23:13;;;;;;;3.55;3.10;;;21.00;92.50;;;;;;10415717;28;20447;-65
2023/05/13 14:28:14;;;;;;;6.18;2.67;;;21.10;92.40;;;;;;10409285;28;20037;-65
2023/05/13 14:33:16;;;;;;;3.08;2.78;;;21.20;92.20;;;;;;10414883;28;20068;-65
2023/05/13 14:38:16;;;;;;;4.72;2.70;;;21.10;92.20;;;;;;10414728;28;20032;-65
2023/05/13 14:43:17;;;;;;;2.90;2.60;;;21.20;92.30;;;;;;10408406;28;20029;-65
2023/05/13 14:48:18;;;;;;;4.85;2.90;;;21.40;92.30;;;;;;10411690;28;20274;-65
2023/05/13 14:53:19;;;;;;;3.65;2.70;;;21.50;92.30;;;;;;10412906;28;20028;-65
2023/05/13 14:58:19;;;;;;;3.00;2.70;;;21.70;92.10;;;;;;10416548;28;20025;-65
2023/05/13 15:03:20;;;;;;;5.10;2.83;;;21.80;91.80;;;;;;10414913;28;20112;-65
2023/05/13 15:08:21;;;;;;;3.20;2.80;;;21.90;91.90;;;;;;10415015;28;20025;-65
2023/05/13 15:13:23;;;;;;;3.85;2.60;;;22.00;91.80;;;;;;10419120;28;20477;-65
2023/05/13 15:18:24;;;;;;;4.10;2.60;;;22.10;91.70;;;;;;10416342;28;20074;-65
2023/05/13 15:23:24;;;;;;;2.95;2.55;;;22.10;91.50;;;;;;10412392;28;20434;-66
2023/05/13 15:28:25;;;;;;;3.83;2.53;;;22.10;91.50;;;;;;10412860;28;20056;-65
2023/05/13 15:33:25;;;;;;;3.00;2.60;;;22.30;91.60;;;;;;10420141;28;20029;-65
2023/05/13 15:38:27;;;;;;;2.90;2.60;;;22.40;91.40;;;;;;10418629;28;20024;-65
2023/05/13 15:43:29;;;;;;;3.88;2.47;;;22.40;91.30;;;;;;10425555;28;20155;-64
2023/05/13 15:48:30;;;;;;;3.20;2.67;;;22.50;91.30;;;;;;10429035;28;20396;-65
2023/05/13 15:53:30;;;;;;;3.05;2.67;;;22.60;91.40;;;;;;10423649;28;20096;-65
2023/05/13 15:58:31;;;;;;;3.20;2.60;;;22.70;91.40;;;;;;10423908;28;20017;-64
2023/05/13 16:03:31;;;;;;;2.78;2.47;;;22.70;91.40;;;;;;10423907;28;20035;-65
2023/05/13 16:08:32;;;;;;;4.22;2.60;;;22.50;91.40;;;;;;10423861;28;20512;-65
2023/05/13 16:13:32;;;;;;;3.20;2.47;;;22.50;91.60;;;;;;10425271;28;20020;-65
2023/05/13 16:18:33;;;;;;;3.10;2.60;;;22.50;91.90;;;;;;10429185;28;20468;-65
2023/05/13 16:23:34;;;;;;;3.53;2.72;;;22.40;92.00;;;;;;10422030;28;20498;-65
2023/05/13 16:28:34;;;;;;;2.67;2.40;;;22.30;92.00;;;;;;10411392;28;20036;-65
2023/05/13 16:33:35;;;;;;;2.90;2.70;;;22.30;92.30;;;;;;10430180;28;20087;-65
2023/05/13 16:38:37;;;;;;;3.30;2.80;;;22.30;92.50;;;;;;10427297;28;20033;-65
2023/05/13 16:43:38;;;;;;;3.80;2.38;;;22.20;92.50;;;;;;10420671;28;20024;-65
2023/05/13 16:48:38;;;;;;;3.60;2.70;;;22.10;92.60;;;;;;10426470;28;20381;-65
2023/05/13 16:53:39;;;;;;;2.92;2.50;;;22.00;92.80;;;;;;10427732;28;20028;-64
2023/05/13 16:58:39;;;;;;;3.08;2.75;;;22.10;92.90;;;;;;10422712;28;20021;-65
2023/05/13 17:03:40;;;;;;;2.78;2.53;;;22.00;93.00;;;;;;10416112;28;20056;-65
2023/05/13 17:08:41;;;;;;;3.00;2.70;;;22.00;93.10;;;;;;10419317;28;20119;-66
2023/05/13 17:13:42;;;;;;;3.10;2.78;;;21.80;93.40;;;;;;10423074;28;20033;-64
2023/05/13 17:18:42;;;;;;;4.30;2.92;;;21.90;93.30;;;;;;10423909;28;20531;-66
2023/05/13 17:23:43;;;;;;;3.10;2.78;;;21.80;93.40;;;;;;10420797;28;20120;-65
2023/05/13 17:28:43;;;;;;;3.72;2.33;;;21.80;93.30;;;;;;10422901;28;20044;-65
2023/05/13 17:33:44;;;;;;;4.40;2.85;;;21.70;93.30;;;;;;10424027;28;20109;-65
2023/05/13 17:38:45;;;;;;;2.70;2.50;;;21.70;93.40;;;;;;10421911;28;20029;-64
2023/05/13 17:43:45;;;;;;;3.05;2.30;;;21.60;93.40;;;;;;10421317;28;20040;-65
2023/05/13 17:48:46;;;;;;;3.88;2.75;;;21.60;93.40;;;;;;10415941;28;20421;-64
2023/05/13 17:53:47;;;;;;;4.15;2.90;;;21.60;93.40;;;;;;10418736;28;20036;-65
2023/05/13 17:58:47;;;;;;;3.03;2.72;;;21.50;93.60;;;;;;10427362;28;20024;-64
2023/05/13 18:03:48;;;;;;;3.75;3.00;;;21.40;93.70;;;;;;10415190;28;20041;-65
2023/05/13 18:08:49;;;;;;;6.40;3.10;;;21.50;93.80;;;;;;10420351;28;20037;-65
2023/05/13 18:13:50;;;;;;;3.85;2.38;;;21.30;93.80;;;;;;10425316;28;20024;-64
2023/05/13 18:18:50;;;;;;;2.83;2.55;;;21.30;93.90;;;;;;10428530;28;20068;-65
2023/05/13 18:23:51;;;;;;;4.70;2.65;;;21.20;94.00;;;;;;10416687;28;20017;-65
2023/05/13 18:28:52;;;;;;;4.82;2.90;;;21.20;94.20;;;;;;10407592;28;20116;-65
2023/05/13 18:33:52;;;;;;;2.65;2.45;;;21.20;94.00;;;;;;10396211;28;20029;-65
2023/05/13 18:38:53;;;;;;;5.15;2.97;;;21.10;94.40;;;;;;10417717;28;20044;-67
2023/05/13 18:43:56;;;;;;;3.45;2.80;;;21.10;94.30;;;;;;10408735;28;20080;-67
2023/05/13 18:48:57;;;;;;;2.85;2.60;;;21.00;94.40;;;;;;10401288;28;20034;-66
2023/05/13 18:53:58;;;;;;;3.05;2.70;;;20.90;94.50;;;;;;10395820;28;20018;-67
2023/05/13 18:58:59;;;;;;;3.42;2.58;;;20.90;94.60;;;;;;10408188;28;20033;-66
2023/05/13 19:04:00;;;;;;;3.97;2.70;;;20.80;94.70;;;;;;10413907;28;20029;-66
2023/05/13 19:09:01;;;;;;;3.10;2.80;;;20.80;94.80;;;;;;10420381;28;20104;-66
2023/05/13 19:14:01;;;;;;;3.17;2.50;;;20.70;94.80;;;;;;10428449;28;20029;-67
2023/05/13 19:19:02;;;;;;;3.88;2.60;;;20.60;94.80;;;;;;10412818;28;20036;-67
2023/05/13 19:24:03;;;;;;;4.05;2.92;;;20.60;94.90;;;;;;10413016;28;20025;-67
2023/05/13 19:29:03;;;;;;;4.40;3.05;;;20.50;95.00;;;;;;10405274;28;20065;-67
2023/05/13 19:34:06;;;;;;;4.70;3.15;;;20.50;95.10;;;;;;10416719;28;20021;-67
2023/05/13 19:39:07;;;;;;;3.67;2.70;;;20.40;95.10;;;;;;10414250;28;20108;-67
2023/05/13 19:44:08;;;;;;;3.45;3.15;;;20.30;95.10;;;;;;10413499;28;20100;-67
2023/05/13 19:49:08;;;;;;;3.45;2.90;;;20.30;95.20;;;;;;10405938;28;20022;-67
2023/05/13 19:54:10;;;;;;;3.65;3.08;;;20.20;95.40;;;;;;10416661;28;20026;-67
2023/05/13 19:59:11;;;;;;;3.70;3.30;;;20.30;95.20;;;;;;10411534;28;20033;-67
2023/05/13 20:04:11;;;;;;;3.95;3.30;;;20.10;95.30;;;;;;10415356;28;20052;-67
2023/05/13 20:09:13;;;;;;;3.40;3.10;;;20.10;95.30;;;;;;10422684;28;20057;-66
2023/05/13 20:14:15;;;;;;;4.30;3.40;;;20.10;95.30;;;;;;10416115;28;20021;-66
2023/05/13 20:19:16;;;;;;;3.53;3.22;;;20.00;95.30;;;;;;10422990;28;20025;-66
2023/05/13 20:24:16;;;;;;;3.92;3.38;;;19.90;95.30;;;;;;10419440;28;20498;-67
2023/05/13 20:29:17;;;;;;;3.88;3.40;;;19.90;95.30;;;;;;10408031;28;20400;-66
2023/05/13 20:34:17;;;;;;;4.78;3.70;;;19.80;95.30;;;;;;10419795;28;20668;-67
2023/05/13 20:39:18;;;;;;;4.60;3.80;;;19.80;95.40;;;;;;10412619;28;20022;-66
2023/05/13 20:44:18;;;;;;;4.35;3.60;;;19.70;95.40;;;;;;10408287;28;20033;-67
2023/05/13 20:49:19;;;;;;;4.93;3.85;;;19.70;95.40;;;;;;10410754;28;20033;-67
2023/05/13 20:54:20;;;;;;;4.65;3.75;;;19.60;95.40;;;;;;10420042;28;20013;-67
2023/05/13 20:59:21;;;;;;;5.38;4.20;;;19.60;95.40;;;;;;10408381;28;20034;-67
2023/05/13 21:04:22;;;;;;;5.65;3.75;;;19.50;95.40;;;;;;10415103;28;20029;-67
2023/05/13 21:09:22;;;;;;;5.47;4.07;;;19.50;95.50;;;;;;10421112;28;20527;-67
2023/05/13 21:14:23;;;;;;;5.50;4.32;;;19.40;95.40;;;;;;10411736;28;20038;-66
2023/05/13 21:19:24;;;;;;;5.80;3.88;;;19.40;95.40;;;;;;10407976;28;20025;-67
2023/05/13 21:24:24;;;;;;;5.80;4.15;;;19.30;95.40;;;;;;10408797;28;20045;-66
2023/05/13 21:29:25;;;;;;;4.80;3.95;;;19.30;95.50;;;;;;10410274;28;20037;-66
2023/05/13 21:34:25;;;;;;;6.13;4.50;;;19.20;95.50;;;;;;10422018;28;20107;-66
2023/05/13 21:39:26;;;;;;;6.20;4.60;;;19.20;95.50;;;;;;10415464;28;20029;-66
2023/05/13 21:44:27;;;;;;;4.88;4.13;;;19.10;95.40;;;;;;10392826;28;20120;-66
2023/05/13 21:49:36;;;;;;;6.07;4.22;;;19.10;95.40;;;;;;10404667;28;20512;-66
2023/05/13 21:54:36;;;;;;;5.50;4.47;;;19.10;95.40;;;;;;10403240;28;20021;-66
2023/05/13 21:59:37;;;;;;;5.43;4.15;;;19.00;95.40;;;;;;10409595;28;20029;-66
2023/05/13 22:04:38;;;;;;;6.30;4.53;;;19.00;95.40;;;;;;10403076;28;20036;-66
2023/05/13 22:09:38;;;;;;;5.03;4.10;;;18.90;95.40;;;;;;10411657;28;20022;-66
2023/05/13 22:14:39;;;;;;;5.43;4.60;;;18.90;95.40;;;;;;10417323;28;20044;-66
2023/05/13 22:19:39;;;;;;;6.43;4.53;;;18.80;95.50;;;;;;10414611;28;20037;-66
2023/05/13 22:24:40;;;;;;;5.75;4.47;;;18.80;95.40;;;;;;10410750;28;20030;-66
2023/05/13 22:29:40;;;;;;;6.25;4.65;;;18.80;95.50;;;;;;10409457;28;20052;-66
2023/05/13 22:34:41;;;;;;;5.72;4.40;;;18.70;95.50;;;;;;10419747;28;20037;-66
2023/05/13 22:39:42;;;;;;;6.05;4.57;;;18.70;95.50;;;;;;10419605;28;20075;-66
2023/05/13 22:44:42;;;;;;;5.38;4.50;;;18.60;95.50;;;;;;10420680;28;20044;-67
2023/05/13 22:49:43;;;;;;;6.10;4.63;;;18.60;95.50;;;;;;10420325;28;20057;-66
2023/05/13 22:54:43;;;;;;;5.78;4.63;;;18.50;95.50;;;;;;10419625;28;20024;-67
2023/05/13 22:59:44;;;;;;;6.60;4.75;;;18.50;95.50;;;;;;10416054;28;20022;-66
2023/05/13 23:04:45;;;;;;;7.63;4.80;;;18.40;95.50;;;;;;10428518;28;20032;-67
2023/05/13 23:09:45;;;;;;;6.70;4.90;;;18.50;95.60;;;;;;10422212;28;20017;-66
2023/05/13 23:14:46;;;;;;;5.57;4.38;;;18.40;95.60;;;;;;10432473;28;20017;-66
2023/05/13 23:19:46;;;;;;;4.75;4.22;;;18.30;95.50;;;;;;10416782;28;20048;-67
2023/05/13 23:24:47;;;;;;;5.75;4.50;;;18.30;95.60;;;;;;10420112;28;20028;-66
2023/05/13 23:29:47;;;;;;;5.65;4.18;;;18.20;95.50;;;;;;10421713;28;20532;-67
2023/05/13 23:34:48;;;;;;;6.45;4.97;;;18.20;95.50;;;;;;10421422;28;20527;-66
2023/05/13 23:39:48;;;;;;;4.90;4.30;;;18.20;95.50;;;;;;10427613;28;20756;-66
2023/05/13 23:44:49;;;;;;;5.90;4.35;;;18.20;95.50;;;;;;10428630;28;20447;-67
2023/05/13 23:49:50;;;;;;;6.65;4.60;;;18.10;95.50;;;;;;10422793;28;20476;-66
2023/05/13 23:54:50;;;;;;;6.22;4.55;;;18.10;95.50;;;;;;10434272;28;20013;-66
2023/05/13 23:59:51;;;;;;;5.50;4.47;;;18.10;95.50;;;;;;10428654;28;20047;-67
